Terminal Aerodrome Forecast
Issued by NWS

Home | Current Version | Previous Version | Text Only | Print | Product List | Glossary Off
Versions: 1 2 3 4 5 6 7 8 9 10 11 12 13 14 15 16 17 18 19 20 21 22 23 24 25 26

000
FTUS43 KBIS 011736
TAFDIK
TAF
KDIK 011736Z 0118/0218 05004KT 5SM BR OVC010
      TEMPO 0118/0121 BKN025
     FM012200 36005KT P6SM VCTS SCT050CB
     FM020200 02005KT P6SM VCTS BKN050CB OVC080
     FM020600 23005KT P6SM SCT060 BKN080=

USA.gov is the U.S. government's official web portal to all federal, state and local government web resources and services.